createdAt,value
2024-05-09T16:52:49.176Z,10.66
2024-05-09T16:55:20.910Z,10.69
2024-05-09T16:57:49.351Z,10.80
2024-05-09T17:00:26.478Z,10.64
2024-05-09T17:03:05.023Z,10.73
2024-05-09T17:05:33.275Z,11.06
2024-05-09T17:08:02.094Z,11.09
2024-05-09T17:10:33.649Z,11.10
2024-05-09T17:13:04.854Z,11.28
2024-05-09T17:15:36.088Z,11.47
2024-05-09T17:18:06.500Z,11.65
2024-05-09T17:23:54.072Z,12.24
2024-05-09T17:26:21.826Z,12.42
2024-05-09T17:28:50.114Z,12.74
2024-05-09T17:31:18.111Z,13.03
2024-05-09T17:33:46.322Z,13.01
2024-05-09T17:36:14.328Z,13.16
2024-05-09T17:38:42.046Z,13.30
2024-05-09T17:41:09.996Z,13.48
2024-05-09T17:43:37.990Z,13.80
2024-05-09T17:46:07.514Z,14.32
2024-05-09T17:48:36.071Z,15.55
2024-05-09T17:51:06.750Z,16.82
2024-05-09T17:53:48.311Z,18.38
2024-05-09T17:56:17.288Z,19.48
2024-05-09T17:58:46.414Z,19.91
2024-05-09T18:01:15.160Z,20.47
2024-05-09T18:03:43.872Z,20.91
2024-05-09T18:06:11.965Z,21.27
2024-05-09T18:08:41.561Z,21.76
2024-05-09T18:11:09.570Z,22.18
2024-05-09T18:13:37.791Z,22.69
2024-05-09T18:16:06.144Z,23.22
2024-05-09T18:18:34.633Z,23.69
2024-05-09T18:21:02.717Z,24.34
2024-05-09T18:23:31.181Z,24.88
2024-05-09T18:25:59.590Z,25.51
2024-05-09T18:28:28.018Z,25.71
2024-05-09T18:30:56.476Z,26.26
2024-05-09T18:33:25.114Z,26.96
2024-05-09T18:35:53.352Z,27.37
2024-05-09T18:38:25.547Z,27.65
2024-05-09T18:40:54.581Z,28.13
2024-05-09T18:43:28.909Z,28.22
2024-05-09T18:46:04.447Z,28.83
2024-05-09T18:48:33.074Z,29.24
2024-05-09T18:51:02.006Z,30.05
2024-05-09T18:53:30.123Z,30.47
2024-05-09T18:55:58.012Z,30.78
2024-05-09T18:58:25.917Z,31.58
2024-05-09T19:00:55.579Z,31.81
2024-05-09T19:03:25.032Z,32.04
2024-05-09T19:05:53.065Z,32.51
2024-05-09T19:08:21.172Z,32.77
2024-05-09T19:10:52.150Z,33.28
2024-05-09T19:13:20.442Z,33.69
2024-05-09T19:15:48.380Z,34.24
2024-05-09T19:18:17.144Z,34.64
2024-05-09T19:20:45.743Z,34.83
2024-05-09T19:23:14.132Z,34.50
2024-05-09T19:25:42.873Z,34.46
2024-05-09T19:28:12.146Z,34.33
2024-05-09T19:30:42.361Z,34.12
2024-05-09T19:33:14.267Z,34.82
2024-05-09T19:35:43.532Z,34.79
2024-05-09T19:38:12.453Z,34.81
2024-05-09T19:40:41.536Z,34.59
2024-05-09T19:43:10.398Z,34.89
2024-05-09T19:45:38.935Z,35.34
2024-05-09T19:48:08.343Z,35.63
2024-05-09T19:50:42.270Z,35.85
2024-05-09T19:53:15.755Z,36.37
2024-05-09T19:55:43.743Z,36.53
2024-05-09T19:58:14.310Z,36.88
2024-05-09T20:00:44.215Z,37.00
2024-05-09T20:03:15.247Z,36.98
2024-05-09T20:05:46.685Z,37.66
2024-05-09T20:08:15.352Z,38.25
2024-05-09T20:10:43.655Z,38.35
2024-05-09T20:13:11.831Z,38.55
2024-05-09T20:15:40.302Z,38.54
2024-05-09T20:18:09.011Z,38.49
2024-05-09T20:20:41.216Z,38.56
2024-05-09T20:23:12.295Z,39.42
2024-05-09T20:25:41.487Z,40.10
2024-05-09T20:28:10.375Z,39.74
2024-05-09T20:30:38.836Z,39.99
2024-05-09T20:33:08.710Z,40.64
2024-05-09T20:35:37.711Z,40.84
2024-05-09T20:38:05.703Z,41.80
2024-05-09T20:40:37.536Z,41.60
2024-05-09T20:43:11.516Z,42.38
2024-05-09T20:45:42.241Z,43.16
2024-05-09T20:48:10.667Z,43.46
2024-05-09T20:50:41.589Z,43.63
2024-05-09T20:53:13.545Z,43.55
2024-05-09T20:55:44.176Z,43.34
2024-05-09T20:58:13.432Z,44.06
2024-05-09T21:00:44.679Z,43.90
2024-05-09T21:03:16.591Z,44.44
2024-05-09T21:05:47.270Z,44.41
2024-05-09T21:08:15.700Z,44.10
2024-05-09T21:10:43.733Z,42.77
2024-05-09T21:13:11.674Z,42.55
2024-05-09T21:15:39.507Z,42.65
2024-05-09T21:18:07.326Z,42.15
2024-05-09T21:20:35.446Z,41.98
2024-05-09T21:23:03.945Z,41.91
2024-05-09T21:25:32.280Z,43.11
2024-05-09T21:28:00.807Z,43.70
2024-05-09T21:30:38.476Z,43.61
2024-05-09T21:33:12.939Z,44.43
2024-05-09T21:35:43.707Z,45.50
2024-05-09T21:38:14.377Z,45.51
2024-05-09T21:40:43.499Z,44.65
2024-05-09T21:43:11.983Z,44.66
2024-05-09T21:45:40.448Z,44.49
2024-05-09T21:48:08.665Z,45.05
2024-05-09T21:50:40.873Z,46.02
2024-05-09T21:53:11.926Z,46.47
2024-05-09T21:55:41.716Z,47.19
2024-05-09T21:58:10.451Z,47.22
2024-05-09T22:00:39.991Z,47.52
2024-05-09T22:03:09.633Z,47.41
2024-05-09T22:05:43.502Z,47.40
2024-05-09T22:08:11.562Z,47.50
2024-05-09T22:10:39.500Z,47.65
2024-05-09T22:13:08.421Z,48.08
2024-05-09T22:15:39.086Z,47.94
2024-05-09T22:18:10.361Z,48.23
2024-05-09T22:20:46.902Z,48.55
2024-05-09T22:23:15.795Z,48.97
2024-05-09T22:25:44.294Z,48.67
2024-05-09T22:28:17.065Z,49.70
2024-05-09T22:30:46.648Z,49.78
2024-05-09T22:33:15.508Z,50.67
2024-05-09T22:35:43.482Z,51.12
2024-05-09T22:38:11.361Z,51.56
2024-05-09T22:40:46.952Z,51.55
2024-05-09T22:43:20.667Z,54.08
2024-05-09T22:45:50.303Z,54.62
2024-05-09T22:48:18.444Z,52.11
2024-05-09T22:50:46.329Z,55.07
2024-05-09T22:53:14.254Z,52.60
2024-05-09T22:55:42.401Z,52.55
2024-05-09T22:58:10.256Z,52.34
2024-05-09T23:00:38.373Z,53.05
2024-05-09T23:03:06.474Z,54.40
2024-05-09T23:05:34.739Z,51.06
2024-05-09T23:08:02.686Z,51.02
2024-05-09T23:10:36.126Z,50.71
2024-05-09T23:13:07.689Z,52.20
2024-05-09T23:15:39.979Z,51.32
2024-05-09T23:18:08.050Z,51.24
2024-05-09T23:20:38.993Z,51.62
2024-05-09T23:23:10.054Z,52.24
2024-05-09T23:25:41.103Z,51.56
2024-05-09T23:28:10.426Z,52.21
2024-05-09T23:30:40.798Z,51.33
2024-05-09T23:33:14.594Z,50.28
2024-05-09T23:35:45.813Z,50.91
2024-05-09T23:38:13.815Z,51.86
2024-05-09T23:40:42.983Z,51.32
2024-05-09T23:43:12.987Z,50.94
2024-05-09T23:45:42.403Z,52.06
2024-05-09T23:48:10.941Z,52.61
2024-05-09T23:50:40.386Z,53.47
2024-05-09T23:53:09.836Z,54.35
2024-05-09T23:55:38.868Z,54.84
2024-05-09T23:58:07.950Z,55.63
